sensor_id;sensor_type;location;lat;lon;timestamp;pressure;altitude;pressure_sealevel;temperature;humidity
76732;BME280;65656;51.130;13.658;2023-02-01T00:03:09;99194.69;;;3.25;78.79
76732;BME280;65656;51.130;13.658;2023-02-01T00:07:12;99198.06;;;3.21;78.80
76732;BME280;65656;51.130;13.658;2023-02-01T00:11:14;99204.28;;;3.34;77.76
76732;BME280;65656;51.130;13.658;2023-02-01T00:15:16;99207.19;;;3.40;77.93
76732;BME280;65656;51.130;13.658;2023-02-01T00:19:17;99194.72;;;3.39;77.70
76732;BME280;65656;51.130;13.658;2023-02-01T00:23:20;99198.47;;;3.51;77.29
76732;BME280;65656;51.130;13.658;2023-02-01T00:27:22;99204.09;;;3.43;77.36
76732;BME280;65656;51.130;13.658;2023-02-01T00:31:23;99195.31;;;3.41;77.79
76732;BME280;65656;51.130;13.658;2023-02-01T00:35:25;99201.78;;;3.40;77.77
76732;BME280;65656;51.130;13.658;2023-02-01T00:39:28;99214.72;;;3.51;77.75
76732;BME280;65656;51.130;13.658;2023-02-01T00:43:30;99207.19;;;3.53;78.02
76732;BME280;65656;51.130;13.658;2023-02-01T00:47:32;99195.53;;;3.46;77.82
76732;BME280;65656;51.130;13.658;2023-02-01T00:51:33;99189.69;;;3.49;77.45
76732;BME280;65656;51.130;13.658;2023-02-01T00:55:36;99207.19;;;3.40;77.85
76732;BME280;65656;51.130;13.658;2023-02-01T00:59:38;99204.28;;;3.34;78.07
76732;BME280;65656;51.130;13.658;2023-02-01T01:03:42;99202.66;;;3.27;77.95
76732;BME280;65656;51.130;13.658;2023-02-01T01:07:43;99203.47;;;3.27;77.38
76732;BME280;65656;51.130;13.658;2023-02-01T01:11:46;99206.38;;;3.26;77.65
76732;BME280;65656;51.130;13.658;2023-02-01T01:15:48;99194.69;;;3.25;77.02
76732;BME280;65656;51.130;13.658;2023-02-01T01:19:49;99201.59;;;3.28;76.57
76732;BME280;65656;51.130;13.658;2023-02-01T01:23:51;99197.63;;;3.37;76.37
76732;BME280;65656;51.130;13.658;2023-02-01T01:27:54;99190.56;;;3.43;75.88
76732;BME280;65656;51.130;13.658;2023-02-01T01:31:55;99205.94;;;3.49;75.78
76732;BME280;65656;51.130;13.658;2023-02-01T01:35:57;99187.19;;;3.47;75.23
76732;BME280;65656;51.130;13.658;2023-02-01T01:39:58;99189.69;;;3.49;75.14
76732;BME280;65656;51.130;13.658;2023-02-01T01:44:04;99198.25;;;3.46;74.75
76732;BME280;65656;51.130;13.658;2023-02-01T01:48:08;99188.47;;;3.45;75.30
76732;BME280;65656;51.130;13.658;2023-02-01T01:52:13;99196.16;;;3.48;74.61
76732;BME280;65656;51.130;13.658;2023-02-01T01:56:15;99192.63;;;3.47;74.88
76732;BME280;65656;51.130;13.658;2023-02-01T02:00:20;99186.97;;;3.49;74.67
76732;BME280;65656;51.130;13.658;2023-02-01T02:04:22;99184.28;;;3.49;74.46
76732;BME280;65656;51.130;13.658;2023-02-01T02:08:26;99198.47;;;3.51;74.05
76732;BME280;65656;51.130;13.658;2023-02-01T02:12:28;99185.53;;;3.53;73.77
76732;BME280;65656;51.130;13.658;2023-02-01T02:16:40;99178.25;;;3.53;74.54
76732;BME280;65656;51.130;13.658;2023-02-01T02:21:09;99172.81;;;3.60;73.33
76732;BME280;65656;51.130;13.658;2023-02-01T02:25:21;99158.44;;;3.53;73.61
76732;BME280;65656;51.130;13.658;2023-02-01T02:29:54;99162.59;;;3.49;73.45
76732;BME280;65656;51.130;13.658;2023-02-01T02:34:06;99158.06;;;3.43;74.27
76732;BME280;65656;51.130;13.658;2023-02-01T02:38:17;99154.69;;;3.41;74.64
76732;BME280;65656;51.130;13.658;2023-02-01T02:42:25;99136.78;;;3.40;73.89
76732;BME280;65656;51.130;13.658;2023-02-01T02:46:33;99148.88;;;3.44;73.85
76732;BME280;65656;51.130;13.658;2023-02-01T02:50:43;99138.88;;;3.38;73.38
76732;BME280;65656;51.130;13.658;2023-02-01T02:54:48;99153.88;;;3.33;73.92
76732;BME280;65656;51.130;13.658;2023-02-01T02:58:51;99146.41;;;3.35;73.18
76732;BME280;65656;51.130;13.658;2023-02-01T03:02:54;99147.63;;;3.33;72.88
76732;BME280;65656;51.130;13.658;2023-02-01T03:06:57;99160.94;;;3.34;73.18
76732;BME280;65656;51.130;13.658;2023-02-01T03:11:01;99140.53;;;3.39;72.15
76732;BME280;65656;51.130;13.658;2023-02-01T03:15:08;99176.78;;;3.44;72.51
76732;BME280;65656;51.130;13.658;2023-02-01T03:19:15;99162.59;;;3.42;72.25
76732;BME280;65656;51.130;13.658;2023-02-01T03:23:23;99161.38;;;3.45;72.52
76732;BME280;65656;51.130;13.658;2023-02-01T03:27:31;99163.03;;;3.46;72.62
76732;BME280;65656;51.130;13.658;2023-02-01T03:31:34;99158.84;;;3.50;71.82
76732;BME280;65656;51.130;13.658;2023-02-01T03:35:39;99149.72;;;3.51;71.83
76732;BME280;65656;51.130;13.658;2023-02-01T03:39:46;99138.44;;;3.54;71.89
76732;BME280;65656;51.130;13.658;2023-02-01T03:43:53;99146.34;;;3.55;71.54
76732;BME280;65656;51.130;13.658;2023-02-01T03:47:58;99138.44;;;3.54;72.09
76732;BME280;65656;51.130;13.658;2023-02-01T03:52:02;99140.94;;;3.55;71.83
76732;BME280;65656;51.130;13.658;2023-02-01T03:56:06;99135.50;;;3.62;71.71
76732;BME280;65656;51.130;13.658;2023-02-01T04:00:14;99137.81;;;3.58;71.19
76732;BME280;65656;51.130;13.658;2023-02-01T04:04:16;99108.63;;;3.54;71.90
76732;BME280;65656;51.130;13.658;2023-02-01T04:08:19;99120.09;;;3.56;71.54
76732;BME280;65656;51.130;13.658;2023-02-01T04:12:22;99123.41;;;3.58;71.51
76732;BME280;65656;51.130;13.658;2023-02-01T04:16:24;99121.13;;;3.61;71.75
76732;BME280;65656;51.130;13.658;2023-02-01T04:20:25;99111.34;;;3.54;71.41
76732;BME280;65656;51.130;13.658;2023-02-01T04:24:27;99103.22;;;3.54;71.32
76732;BME280;65656;51.130;13.658;2023-02-01T04:28:30;99105.94;;;3.54;71.36
76732;BME280;65656;51.130;13.658;2023-02-01T04:32:32;99100.50;;;3.54;71.38
76732;BME280;65656;51.130;13.658;2023-02-01T04:36:33;99099.69;;;3.47;71.66
76732;BME280;65656;51.130;13.658;2023-02-01T04:40:35;99107.22;;;3.45;71.73
76732;BME280;65656;51.130;13.658;2023-02-01T04:44:37;99098.25;;;3.38;71.90
76732;BME280;65656;51.130;13.658;2023-02-01T04:48:39;99091.78;;;3.52;71.76
76732;BME280;65656;51.130;13.658;2023-02-01T04:52:40;99087.59;;;3.56;70.99
76732;BME280;65656;51.130;13.658;2023-02-01T04:56:42;99078.84;;;3.54;71.47
76732;BME280;65656;51.130;13.658;2023-02-01T05:00:45;99080.53;;;3.42;71.80
76732;BME280;65656;51.130;13.658;2023-02-01T05:04:46;99074.28;;;3.48;71.13
76732;BME280;65656;51.130;13.658;2023-02-01T05:08:48;99070.53;;;3.42;71.45
76732;BME280;65656;51.130;13.658;2023-02-01T05:12:50;99066.59;;;3.45;70.94
76732;BME280;65656;51.130;13.658;2023-02-01T05:16:53;99054.69;;;3.46;71.19
76732;BME280;65656;51.130;13.658;2023-02-01T05:20:54;99059.50;;;3.44;70.86
76732;BME280;65656;51.130;13.658;2023-02-01T05:24:56;99049.28;;;3.46;70.45
76732;BME280;65656;51.130;13.658;2023-02-01T05:28:57;99050.34;;;3.45;70.63
76732;BME280;65656;51.130;13.658;2023-02-01T05:33:00;99042.63;;;3.42;70.49
76732;BME280;65656;51.130;13.658;2023-02-01T05:37:02;99032.19;;;3.52;70.14
76732;BME280;65656;51.130;13.658;2023-02-01T05:41:04;99043.41;;;3.55;69.69
76732;BME280;65656;51.130;13.658;2023-02-01T05:45:06;99041.28;;;3.64;69.39
76732;BME280;65656;51.130;13.658;2023-02-01T05:49:09;99049.63;;;3.62;69.68
76732;BME280;65656;51.130;13.658;2023-02-01T05:53:11;99043.84;;;3.59;69.94
76732;BME280;65656;51.130;13.658;2023-02-01T05:57:13;99038.81;;;3.56;70.09
76732;BME280;65656;51.130;13.658;2023-02-01T06:01:14;99038.66;;;3.51;71.44
76732;BME280;65656;51.130;13.658;2023-02-01T06:05:17;99038.44;;;3.46;71.58
76732;BME280;65656;51.130;13.658;2023-02-01T06:09:18;99025.53;;;3.48;71.15
76732;BME280;65656;51.130;13.658;2023-02-01T06:13:20;99029.72;;;3.44;71.33
76732;BME280;65656;51.130;13.658;2023-02-01T06:17:21;99018.88;;;3.50;70.74
76732;BME280;65656;51.130;13.658;2023-02-01T06:21:24;99018.41;;;3.60;70.20
76732;BME280;65656;51.130;13.658;2023-02-01T06:25:26;99026.94;;;3.57;70.44
76732;BME280;65656;51.130;13.658;2023-02-01T06:29:27;99020.09;;;3.54;70.64
76732;BME280;65656;51.130;13.658;2023-02-01T06:33:29;99028.41;;;3.59;69.92
76732;BME280;65656;51.130;13.658;2023-02-01T06:37:32;99028.38;;;3.66;69.90
76732;BME280;65656;51.130;13.658;2023-02-01T06:41:33;99035.88;;;3.64;69.81
76732;BME280;65656;51.130;13.658;2023-02-01T06:45:35;99040.69;;;3.62;70.41
76732;BME280;65656;51.130;13.658;2023-02-01T06:49:36;99017.97;;;3.63;70.22
76732;BME280;65656;51.130;13.658;2023-02-01T06:53:39;99021.72;;;3.62;69.66
76732;BME280;65656;51.130;13.658;2023-02-01T06:57:40;99008.38;;;3.67;70.74
76732;BME280;65656;51.130;13.658;2023-02-01T07:01:42;99017.97;;;3.56;70.99
76732;BME280;65656;51.130;13.658;2023-02-01T07:05:43;99014.66;;;3.54;71.09
76732;BME280;65656;51.130;13.658;2023-02-01T07:09:46;99005.09;;;3.52;71.79
76732;BME280;65656;51.130;13.658;2023-02-01T07:13:48;99009.28;;;3.48;73.14
76732;BME280;65656;51.130;13.658;2023-02-01T07:17:50;98996.22;;;3.31;74.49
76732;BME280;65656;51.130;13.658;2023-02-01T07:21:51;99005.66;;;3.09;76.60
76732;BME280;65656;51.130;13.658;2023-02-01T07:25:54;99008.19;;;2.91;78.87
76732;BME280;65656;51.130;13.658;2023-02-01T07:29:56;99009.03;;;2.71;79.30
76732;BME280;65656;51.130;13.658;2023-02-01T07:33:57;98998.63;;;2.68;80.23
76732;BME280;65656;51.130;13.658;2023-02-01T07:37:59;98994.06;;;2.75;79.14
76732;BME280;65656;51.130;13.658;2023-02-01T07:42:02;98997.38;;;2.77;79.53
76732;BME280;65656;51.130;13.658;2023-02-01T07:46:04;98994.88;;;2.76;79.19
76732;BME280;65656;51.130;13.658;2023-02-01T07:50:07;98976.97;;;2.88;78.58
76732;BME280;65656;51.130;13.658;2023-02-01T07:54:09;98971.97;;;2.92;77.81
76732;BME280;65656;51.130;13.658;2023-02-01T07:58:11;98980.06;;;2.98;77.34
76732;BME280;65656;51.130;13.658;2023-02-01T08:02:13;98981.50;;;3.01;77.31
76732;BME280;65656;51.130;13.658;2023-02-01T08:06:15;98970.28;;;3.04;77.35
76732;BME280;65656;51.130;13.658;2023-02-01T08:10:17;98967.81;;;2.83;79.63
76732;BME280;65656;51.130;13.658;2023-02-01T08:14:20;98945.34;;;2.89;78.69
76732;BME280;65656;51.130;13.658;2023-02-01T08:18:21;98967.41;;;2.86;78.81
76732;BME280;65656;51.130;13.658;2023-02-01T08:22:23;98967.41;;;2.79;79.72
76732;BME280;65656;51.130;13.658;2023-02-01T08:26:25;98956.63;;;2.66;81.33
76732;BME280;65656;51.130;13.658;2023-02-01T08:30:28;98949.97;;;2.68;80.29
76732;BME280;65656;51.130;13.658;2023-02-01T08:34:30;98946.63;;;2.66;80.48
76732;BME280;65656;51.130;13.658;2023-02-01T08:38:31;98934.53;;;2.82;78.78
76732;BME280;65656;51.130;13.658;2023-02-01T08:42:33;98938.22;;;3.01;77.78
76732;BME280;65656;51.130;13.658;2023-02-01T08:46:35;98941.47;;;3.23;75.12
76732;BME280;65656;51.130;13.658;2023-02-01T08:50:37;98944.72;;;3.45;74.21
76732;BME280;65656;51.130;13.658;2023-02-01T08:54:38;98925.88;;;3.56;74.22
76732;BME280;65656;51.130;13.658;2023-02-01T08:58:40;98929.81;;;3.67;72.89
76732;BME280;65656;51.130;13.658;2023-02-01T09:02:43;98922.47;;;3.74;72.35
76732;BME280;65656;51.130;13.658;2023-02-01T09:06:45;98922.03;;;3.77;72.67
76732;BME280;65656;51.130;13.658;2023-02-01T09:10:46;98929.09;;;3.78;72.99
76732;BME280;65656;51.130;13.658;2023-02-01T09:14:48;98930.75;;;3.79;72.85
76732;BME280;65656;51.130;13.658;2023-02-01T09:18:51;98931.19;;;3.76;72.00
76732;BME280;65656;51.130;13.658;2023-02-01T09:23:08;98932.03;;;3.77;73.26
76732;BME280;65656;51.130;13.658;2023-02-01T09:27:09;98933.72;;;3.71;73.57
76732;BME280;65656;51.130;13.658;2023-02-01T09:31:11;98922.53;;;3.61;75.03
76732;BME280;65656;51.130;13.658;2023-02-01T09:35:14;98926.56;;;3.52;75.24
76732;BME280;65656;51.130;13.658;2023-02-01T09:39:16;98915.56;;;3.40;76.22
76732;BME280;65656;51.130;13.658;2023-02-01T09:43:24;98938.28;;;3.32;77.18
76732;BME280;65656;51.130;13.658;2023-02-01T09:47:30;98947.00;;;2.90;81.85
76732;BME280;65656;51.130;13.658;2023-02-01T09:51:37;98957.91;;;2.50;85.47
76732;BME280;65656;51.130;13.658;2023-02-01T09:55:41;98961.22;;;2.19;87.51
76732;BME280;65656;51.130;13.658;2023-02-01T09:59:46;98979.50;;;1.97;88.82
76732;BME280;65656;51.130;13.658;2023-02-01T10:03:52;98972.00;;;1.92;89.56
76732;BME280;65656;51.130;13.658;2023-02-01T10:08:04;98978.88;;;1.88;89.49
76732;BME280;65656;51.130;13.658;2023-02-01T10:12:36;98989.03;;;1.93;90.08
76732;BME280;65656;51.130;13.658;2023-02-01T10:16:49;98992.19;;;1.97;89.40
76732;BME280;65656;51.130;13.658;2023-02-01T10:20:57;98993.00;;;1.97;90.62
76732;BME280;65656;51.130;13.658;2023-02-01T10:25:13;99006.31;;;2.05;90.75
76732;BME280;65656;51.130;13.658;2023-02-01T10:29:18;98998.63;;;2.09;90.62
76732;BME280;65656;51.130;13.658;2023-02-01T10:33:24;98994.06;;;2.22;89.39
76732;BME280;65656;51.130;13.658;2023-02-01T10:37:30;98997.38;;;2.24;89.57
76732;BME280;65656;51.130;13.658;2023-02-01T10:41:35;98990.34;;;2.37;88.50
76732;BME280;65656;51.130;13.658;2023-02-01T10:45:38;98980.97;;;2.46;88.65
76732;BME280;65656;51.130;13.658;2023-02-01T10:49:46;98994.91;;;2.56;87.92
76732;BME280;65656;51.130;13.658;2023-02-01T10:53:55;98985.34;;;2.73;86.31
76732;BME280;65656;51.130;13.658;2023-02-01T10:58:00;99012.34;;;3.00;83.97
76732;BME280;65656;51.130;13.658;2023-02-01T11:02:16;99020.66;;;3.05;83.93
76732;BME280;65656;51.130;13.658;2023-02-01T11:06:27;99024.38;;;3.17;82.68
76732;BME280;65656;51.130;13.658;2023-02-01T11:10:34;99016.66;;;3.27;81.38
76732;BME280;65656;51.130;13.658;2023-02-01T11:14:39;99015.16;;;3.31;81.90
76732;BME280;65656;51.130;13.658;2023-02-01T11:18:41;99013.06;;;3.33;82.19
76732;BME280;65656;51.130;13.658;2023-02-01T11:22:46;99005.59;;;3.35;81.94
76732;BME280;65656;51.130;13.658;2023-02-01T11:26:48;99011.75;;;3.49;80.37
76732;BME280;65656;51.130;13.658;2023-02-01T11:30:53;99023.41;;;3.50;80.37
76732;BME280;65656;51.130;13.658;2023-02-01T11:34:59;98993.38;;;3.58;79.83
76732;BME280;65656;51.130;13.658;2023-02-01T11:39:18;98998.38;;;3.61;80.00
76732;BME280;65656;51.130;13.658;2023-02-01T11:43:24;98988.34;;;3.68;79.03
76732;BME280;65656;51.130;13.658;2023-02-01T11:47:28;98993.38;;;3.58;80.03
76732;BME280;65656;51.130;13.658;2023-02-01T11:51:40;98981.22;;;3.35;82.21
76732;BME280;65656;51.130;13.658;2023-02-01T11:55:59;98975.63;;;3.24;83.73
76732;BME280;65656;51.130;13.658;2023-02-01T12:00:16;98962.31;;;3.22;83.43
76732;BME280;65656;51.130;13.658;2023-02-01T12:04:48;98962.66;;;3.32;82.65
76732;BME280;65656;51.130;13.658;2023-02-01T12:09:05;98965.09;;;3.47;82.15
76732;BME280;65656;51.130;13.658;2023-02-01T12:13:17;98961.69;;;3.65;81.13
76732;BME280;65656;51.130;13.658;2023-02-01T12:17:48;98959.94;;;3.77;79.57
76732;BME280;65656;51.130;13.658;2023-02-01T12:22:05;98958.69;;;3.80;79.53
76732;BME280;65656;51.130;13.658;2023-02-01T12:26:35;98955.56;;;3.83;78.76
76732;BME280;65656;51.130;13.658;2023-02-01T12:35:36;98945.19;;;4.05;77.86
76732;BME280;65656;51.130;13.658;2023-02-01T12:39:47;98956.16;;;4.16;76.42
76732;BME280;65656;51.130;13.658;2023-02-01T12:43:56;98942.38;;;4.18;76.04
76732;BME280;65656;51.130;13.658;2023-02-01T12:48:02;98947.50;;;4.26;75.54
76732;BME280;65656;51.130;13.658;2023-02-01T12:52:12;98939.94;;;4.35;73.86
76732;BME280;65656;51.130;13.658;2023-02-01T12:56:21;98932.00;;;4.33;73.54
76732;BME280;65656;51.130;13.658;2023-02-01T13:00:30;98940.66;;;4.48;71.57
76732;BME280;65656;51.130;13.658;2023-02-01T13:04:36;98935.63;;;4.52;71.50
76732;BME280;65656;51.130;13.658;2023-02-01T13:08:43;98945.13;;;4.61;71.05
76732;BME280;65656;51.130;13.658;2023-02-01T13:12:53;98916.66;;;4.70;70.32
76732;BME280;65656;51.130;13.658;2023-02-01T13:17:00;98925.78;;;4.76;71.13
76732;BME280;65656;51.130;13.658;2023-02-01T13:21:05;98928.63;;;4.81;70.32
76732;BME280;65656;51.130;13.658;2023-02-01T13:25:12;98910.69;;;4.80;70.21
76732;BME280;65656;51.130;13.658;2023-02-01T13:29:15;98920.66;;;4.86;69.89
76732;BME280;65656;51.130;13.658;2023-02-01T13:33:35;98904.38;;;4.86;70.64
76732;BME280;65656;51.130;13.658;2023-02-01T13:38:10;98900.59;;;4.87;71.37
76732;BME280;65656;51.130;13.658;2023-02-01T13:42:19;98910.25;;;4.83;71.99
76732;BME280;65656;51.130;13.658;2023-02-01T13:46:23;98902.31;;;4.82;71.00
76732;BME280;65656;51.130;13.658;2023-02-01T13:50:29;98886.44;;;4.85;70.24
76732;BME280;65656;51.130;13.658;2023-02-01T13:54:32;98884.78;;;4.84;70.94
76732;BME280;65656;51.130;13.658;2023-02-01T13:58:36;98894.88;;;4.77;70.16
76732;BME280;65656;51.130;13.658;2023-02-01T14:03:07;98888.22;;;4.73;70.26
76732;BME280;65656;51.130;13.658;2023-02-01T14:07:18;98885.66;;;4.78;70.77
76732;BME280;65656;51.130;13.658;2023-02-01T14:11:35;98888.38;;;4.78;69.76
76732;BME280;65656;51.130;13.658;2023-02-01T14:15:37;98879.78;;;4.81;69.51
76732;BME280;65656;51.130;13.658;2023-02-01T14:19:40;98875.19;;;4.82;69.42
76732;BME280;65656;51.130;13.658;2023-02-01T14:23:43;98867.66;;;4.84;69.28
76732;BME280;65656;51.130;13.658;2023-02-01T14:27:46;98857.16;;;4.87;67.67
76732;BME280;65656;51.130;13.658;2023-02-01T14:31:59;98873.44;;;4.87;66.29
76732;BME280;65656;51.130;13.658;2023-02-01T14:36:06;98864.72;;;4.85;66.98
76732;BME280;65656;51.130;13.658;2023-02-01T14:40:16;98875.28;;;4.75;68.01
76732;BME280;65656;51.130;13.658;2023-02-01T14:44:25;98863.13;;;4.78;66.77
76732;BME280;65656;51.130;13.658;2023-02-01T14:48:43;98865.63;;;4.79;67.94
76732;BME280;65656;51.130;13.658;2023-02-01T14:52:49;98870.28;;;4.72;68.16
76732;BME280;65656;51.130;13.658;2023-02-01T14:56:52;98875.13;;;4.70;68.58
76732;BME280;65656;51.130;13.658;2023-02-01T15:00:56;98855.66;;;4.73;67.15
76732;BME280;65656;51.130;13.658;2023-02-01T15:04:58;98859.91;;;4.69;67.91
76732;BME280;65656;51.130;13.658;2023-02-01T15:09:04;98850.75;;;4.63;68.65
76732;BME280;65656;51.130;13.658;2023-02-01T15:13:18;98848.72;;;4.59;69.17
76732;BME280;65656;51.130;13.658;2023-02-01T15:17:22;98844.81;;;4.36;70.10
76732;BME280;65656;51.130;13.658;2023-02-01T15:21:24;98830.31;;;4.24;71.70
76732;BME280;65656;51.130;13.658;2023-02-01T15:25:34;98820.06;;;4.26;70.02
76732;BME280;65656;51.130;13.658;2023-02-01T15:29:36;98801.78;;;4.22;70.40
76732;BME280;65656;51.130;13.658;2023-02-01T15:33:38;98803.19;;;4.24;70.83
76732;BME280;65656;51.130;13.658;2023-02-01T15:37:39;98780.13;;;4.33;69.90
76732;BME280;65656;51.130;13.658;2023-02-01T15:41:43;98786.41;;;4.34;69.95
76732;BME280;65656;51.130;13.658;2023-02-01T15:45:49;98790.56;;;4.36;68.62
76732;BME280;65656;51.130;13.658;2023-02-01T15:49:52;98775.47;;;4.40;69.06
76732;BME280;65656;51.130;13.658;2023-02-01T15:53:58;98766.75;;;4.38;69.13
76732;BME280;65656;51.130;13.658;2023-02-01T15:58:06;98765.53;;;4.34;69.32
76732;BME280;65656;51.130;13.658;2023-02-01T16:02:24;98761.31;;;4.38;69.10
76732;BME280;65656;51.130;13.658;2023-02-01T16:06:28;98748.06;;;4.30;69.04
76732;BME280;65656;51.130;13.658;2023-02-01T16:10:31;98733.16;;;4.21;70.36
76732;BME280;65656;51.130;13.658;2023-02-01T16:14:34;98738.25;;;4.11;71.45
76732;BME280;65656;51.130;13.658;2023-02-01T16:18:35;98729.06;;;4.12;71.40
76732;BME280;65656;51.130;13.658;2023-02-01T16:22:37;98723.50;;;4.07;71.64
76732;BME280;65656;51.130;13.658;2023-02-01T16:26:38;98729.59;;;4.02;72.59
76732;BME280;65656;51.130;13.658;2023-02-01T16:30:41;98749.50;;;3.71;74.98
76732;BME280;65656;51.130;13.658;2023-02-01T16:34:43;98776.34;;;3.48;77.17
76732;BME280;65656;51.130;13.658;2023-02-01T16:38:46;98787.13;;;3.29;78.82
76732;BME280;65656;51.130;13.658;2023-02-01T16:42:50;98780.38;;;3.07;81.70
76732;BME280;65656;51.130;13.658;2023-02-01T16:46:53;98793.03;;;2.82;84.01
76732;BME280;65656;51.130;13.658;2023-02-01T16:50:57;98838.88;;;2.57;87.01
76732;BME280;65656;51.130;13.658;2023-02-01T16:54:59;98861.19;;;2.39;86.53
76732;BME280;65656;51.130;13.658;2023-02-01T16:59:00;98904.66;;;1.91;90.05
76732;BME280;65656;51.130;13.658;2023-02-01T17:03:04;98853.38;;;0.90;92.19
76732;BME280;65656;51.130;13.658;2023-02-01T17:07:06;98824.72;;;0.82;93.55
76732;BME280;65656;51.130;13.658;2023-02-01T17:11:09;98746.31;;;0.91;91.89
76732;BME280;65656;51.130;13.658;2023-02-01T17:15:11;98783.25;;;0.90;90.89
76732;BME280;65656;51.130;13.658;2023-02-01T17:19:15;98822.72;;;1.04;88.88
76732;BME280;65656;51.130;13.658;2023-02-01T17:23:18;98825.84;;;1.15;87.15
76732;BME280;65656;51.130;13.658;2023-02-01T17:27:20;98838.09;;;1.10;88.74
76732;BME280;65656;51.130;13.658;2023-02-01T17:31:22;98855.09;;;1.04;89.48
76732;BME280;65656;51.130;13.658;2023-02-01T17:35:27;98859.63;;;0.97;89.02
76732;BME280;65656;51.130;13.658;2023-02-01T17:39:29;98871.59;;;0.81;89.79
76732;BME280;65656;51.130;13.658;2023-02-01T17:43:30;98877.03;;;0.88;88.93
76732;BME280;65656;51.130;13.658;2023-02-01T17:47:32;98891.09;;;0.83;89.09
76732;BME280;65656;51.130;13.658;2023-02-01T17:51:35;98892.34;;;0.81;89.49
76732;BME280;65656;51.130;13.658;2023-02-01T17:55:40;98877.81;;;0.82;89.17
76732;BME280;65656;51.130;13.658;2023-02-01T17:59:42;98889.47;;;0.89;88.75
76732;BME280;65656;51.130;13.658;2023-02-01T18:03:44;98910.66;;;0.99;89.47
76732;BME280;65656;51.130;13.658;2023-02-01T18:07:48;98931.84;;;0.95;88.85
76732;BME280;65656;51.130;13.658;2023-02-01T18:11:52;98923.16;;;1.06;88.12
76732;BME280;65656;51.130;13.658;2023-02-01T18:15:54;98920.25;;;1.08;88.85
76732;BME280;65656;51.130;13.658;2023-02-01T18:19:55;98920.69;;;1.11;88.67
76732;BME280;65656;51.130;13.658;2023-02-01T18:23:59;98916.97;;;1.13;89.13
76732;BME280;65656;51.130;13.658;2023-02-01T18:28:00;98929.00;;;1.17;89.15
76732;BME280;65656;51.130;13.658;2023-02-01T18:32:02;98924.66;;;1.22;88.56
76732;BME280;65656;51.130;13.658;2023-02-01T18:36:04;98933.81;;;1.21;88.99
76732;BME280;65656;51.130;13.658;2023-02-01T18:40:11;98931.75;;;1.30;88.32
76732;BME280;65656;51.130;13.658;2023-02-01T18:44:14;98930.31;;;1.34;88.79
76732;BME280;65656;51.130;13.658;2023-02-01T18:48:17;98929.06;;;1.30;89.77
76732;BME280;65656;51.130;13.658;2023-02-01T18:52:18;98918.69;;;1.27;89.23
76732;BME280;65656;51.130;13.658;2023-02-01T18:56:21;98909.53;;;1.28;89.85
76732;BME280;65656;51.130;13.658;2023-02-01T19:00:23;98914.72;;;1.29;88.50
76732;BME280;65656;51.130;13.658;2023-02-01T19:04:24;98919.91;;;1.31;88.99
76732;BME280;65656;51.130;13.658;2023-02-01T19:08:27;98918.25;;;1.30;88.81
76732;BME280;65656;51.130;13.658;2023-02-01T19:12:30;98927.81;;;1.26;87.75
76732;BME280;65656;51.130;13.658;2023-02-01T19:16:32;98926.16;;;1.25;87.03
76732;BME280;65656;51.130;13.658;2023-02-01T19:20:35;98922.00;;;1.29;87.22
76732;BME280;65656;51.130;13.658;2023-02-01T19:24:38;98938.19;;;1.29;87.20
76732;BME280;65656;51.130;13.658;2023-02-01T19:28:41;98941.50;;;1.31;86.68
76732;BME280;65656;51.130;13.658;2023-02-01T19:32:43;98951.94;;;1.41;85.96
76732;BME280;65656;51.130;13.658;2023-02-01T19:36:45;98947.38;;;1.41;86.55
76732;BME280;65656;51.130;13.658;2023-02-01T19:40:47;98953.16;;;1.38;86.76
76732;BME280;65656;51.130;13.658;2023-02-01T19:44:50;98948.97;;;1.29;88.34
76732;BME280;65656;51.130;13.658;2023-02-01T19:48:51;98954.81;;;1.39;87.42
76732;BME280;65656;51.130;13.658;2023-02-01T19:52:53;98944.06;;;1.46;85.70
76732;BME280;65656;51.130;13.658;2023-02-01T19:56:55;98935.97;;;1.52;86.05
76732;BME280;65656;51.130;13.658;2023-02-01T20:00:58;98943.44;;;1.50;85.95
76732;BME280;65656;51.130;13.658;2023-02-01T20:04:59;98940.97;;;1.62;85.23
76732;BME280;65656;51.130;13.658;2023-02-01T20:09:01;98944.50;;;1.62;85.50
76732;BME280;65656;51.130;13.658;2023-02-01T20:13:02;98967.81;;;1.63;86.34
76732;BME280;65656;51.130;13.658;2023-02-01T20:17:06;98966.09;;;1.49;87.89
76732;BME280;65656;51.130;13.658;2023-02-01T20:21:07;98971.50;;;1.49;88.22
76732;BME280;65656;51.130;13.658;2023-02-01T20:25:09;98984.75;;;1.44;90.16
76732;BME280;65656;51.130;13.658;2023-02-01T20:29:11;98993.50;;;1.53;87.70
76732;BME280;65656;51.130;13.658;2023-02-01T20:33:14;98985.22;;;1.61;87.33
76732;BME280;65656;51.130;13.658;2023-02-01T20:37:15;98991.00;;;1.51;88.75
76732;BME280;65656;51.130;13.658;2023-02-01T20:41:17;98997.63;;;1.42;90.02
76732;BME280;65656;51.130;13.658;2023-02-01T20:45:18;98986.34;;;1.32;89.51
76732;BME280;65656;51.130;13.658;2023-02-01T20:49:21;98992.16;;;1.29;90.25
76732;BME280;65656;51.130;13.658;2023-02-01T20:53:23;98987.38;;;1.31;89.83
76732;BME280;65656;51.130;13.658;2023-02-01T20:57:27;98989.28;;;1.37;89.40
76732;BME280;65656;51.130;13.658;2023-02-01T21:01:29;99000.16;;;1.50;88.06
76732;BME280;65656;51.130;13.658;2023-02-01T21:05:32;98995.41;;;1.59;87.63
76732;BME280;65656;51.130;13.658;2023-02-01T21:09:33;98995.19;;;1.60;87.66
76732;BME280;65656;51.130;13.658;2023-02-01T21:13:37;99001.41;;;1.61;87.59
76732;BME280;65656;51.130;13.658;2023-02-01T21:17:39;99002.06;;;1.70;86.41
76732;BME280;65656;51.130;13.658;2023-02-01T21:21:42;98997.72;;;1.68;85.73
76732;BME280;65656;51.130;13.658;2023-02-01T21:25:43;99007.09;;;1.73;85.04
76732;BME280;65656;51.130;13.658;2023-02-01T21:29:45;99001.03;;;1.71;85.24
76732;BME280;65656;51.130;13.658;2023-02-01T21:33:47;99006.84;;;1.67;85.88
76732;BME280;65656;51.130;13.658;2023-02-01T21:37:50;99017.47;;;1.76;86.08
76732;BME280;65656;51.130;13.658;2023-02-01T21:41:52;99014.34;;;1.72;85.43